Terminal Aerodrome Forecast
Issued by NWS Cleveland, OH

Home | Current Version | Previous Version | Text Only | Print | Product List | Glossary On
Versions: 1 2 3 4 5 6 7 8 9 10 11 12 13 14 15 16 17 18 19 20 21 22
000
FTUS41 KCLE 251700
TAFERI
TAF
KERI 251739Z 2518/2618 22012G20KT P6SM OVC035
     FM252100 23010KT P6SM OVC025
     FM260100 25005KT P6SM OVC020
     FM260600 VRB03KT P6SM BKN100 OVC250
     FM261600 05005KT P6SM BKN250=

USA.gov is the U.S. government's official web portal to all federal, state and local government web resources and services.